sensor_id;sensor_type;location;lat;lon;timestamp;temperature;humidity
20985;DHT22;10651;47.552;7.606;2023-04-25T06:16:08;9.60;99.90
20985;DHT22;10651;47.552;7.606;2023-04-25T06:18:34;9.60;99.90
20985;DHT22;10651;47.552;7.606;2023-04-25T06:21:00;9.70;99.90
20985;DHT22;10651;47.552;7.606;2023-04-25T06:23:26;9.80;99.90
20985;DHT22;10651;47.552;7.606;2023-04-25T06:25:51;9.80;99.90
20985;DHT22;10651;47.552;7.606;2023-04-25T06:28:17;9.80;99.90
20985;DHT22;10651;47.552;7.606;2023-04-25T06:30:43;9.80;99.90
20985;DHT22;10651;47.552;7.606;2023-04-25T06:33:08;9.90;99.90
20985;DHT22;10651;47.552;7.606;2023-04-25T06:35:34;9.90;99.90
20985;DHT22;10651;47.552;7.606;2023-04-25T06:38:00;9.90;99.90
20985;DHT22;10651;47.552;7.606;2023-04-25T06:40:26;9.90;99.90
20985;DHT22;10651;47.552;7.606;2023-04-25T06:42:51;9.90;99.90
20985;DHT22;10651;47.552;7.606;2023-04-25T06:45:17;10.00;99.90
20985;DHT22;10651;47.552;7.606;2023-04-25T06:47:43;10.10;99.90
20985;DHT22;10651;47.552;7.606;2023-04-25T06:50:09;10.10;99.90
20985;DHT22;10651;47.552;7.606;2023-04-25T06:52:34;10.00;99.90
20985;DHT22;10651;47.552;7.606;2023-04-25T06:55:00;10.10;99.90
20985;DHT22;10651;47.552;7.606;2023-04-25T06:57:26;10.00;99.90
20985;DHT22;10651;47.552;7.606;2023-04-25T06:59:52;10.10;99.90
20985;DHT22;10651;47.552;7.606;2023-04-25T07:02:17;10.10;99.90
20985;DHT22;10651;47.552;7.606;2023-04-25T07:04:43;10.20;99.90
20985;DHT22;10651;47.552;7.606;2023-04-25T07:07:08;10.20;99.90
20985;DHT22;10651;47.552;7.606;2023-04-25T07:09:34;10.20;99.90
20985;DHT22;10651;47.552;7.606;2023-04-25T07:12:00;10.30;99.90
20985;DHT22;10651;47.552;7.606;2023-04-25T07:14:29;10.30;99.90
20985;DHT22;10651;47.552;7.606;2023-04-25T07:16:54;10.20;99.90
20985;DHT22;10651;47.552;7.606;2023-04-25T07:19:22;10.20;99.90
20985;DHT22;10651;47.552;7.606;2023-04-25T07:21:52;10.30;99.90
20985;DHT22;10651;47.552;7.606;2023-04-25T07:24:17;10.10;99.90
20985;DHT22;10651;47.552;7.606;2023-04-25T07:26:43;10.10;99.90
20985;DHT22;10651;47.552;7.606;2023-04-25T07:29:09;10.00;99.90
20985;DHT22;10651;47.552;7.606;2023-04-25T07:31:35;10.00;99.90
20985;DHT22;10651;47.552;7.606;2023-04-25T07:34:01;10.00;99.90
20985;DHT22;10651;47.552;7.606;2023-04-25T07:36:26;9.90;99.90
20985;DHT22;10651;47.552;7.606;2023-04-25T07:38:52;9.90;99.90
20985;DHT22;10651;47.552;7.606;2023-04-25T07:41:19;9.80;99.90
20985;DHT22;10651;47.552;7.606;2023-04-25T07:43:45;9.70;99.90
20985;DHT22;10651;47.552;7.606;2023-04-25T07:46:11;9.70;99.90
20985;DHT22;10651;47.552;7.606;2023-04-25T07:48:36;9.80;99.90
20985;DHT22;10651;47.552;7.606;2023-04-25T07:51:02;9.80;99.90
20985;DHT22;10651;47.552;7.606;2023-04-25T07:53:30;9.90;99.90
20985;DHT22;10651;47.552;7.606;2023-04-25T07:55:55;10.10;99.90
20985;DHT22;10651;47.552;7.606;2023-04-25T07:58:21;10.30;99.90
20985;DHT22;10651;47.552;7.606;2023-04-25T08:00:48;10.50;99.90
20985;DHT22;10651;47.552;7.606;2023-04-25T08:03:13;10.70;99.90
20985;DHT22;10651;47.552;7.606;2023-04-25T08:05:39;10.70;99.90
20985;DHT22;10651;47.552;7.606;2023-04-25T08:08:05;10.60;99.90
20985;DHT22;10651;47.552;7.606;2023-04-25T08:10:32;10.80;99.90
20985;DHT22;10651;47.552;7.606;2023-04-25T08:12:58;10.90;99.90
20985;DHT22;10651;47.552;7.606;2023-04-25T08:15:24;11.00;99.90
20985;DHT22;10651;47.552;7.606;2023-04-25T08:17:50;11.10;99.90
20985;DHT22;10651;47.552;7.606;2023-04-25T08:20:16;11.00;99.90
20985;DHT22;10651;47.552;7.606;2023-04-25T08:22:42;11.10;99.90
20985;DHT22;10651;47.552;7.606;2023-04-25T08:25:08;11.20;99.90
20985;DHT22;10651;47.552;7.606;2023-04-25T08:27:34;11.10;99.90
20985;DHT22;10651;47.552;7.606;2023-04-25T08:30:02;11.10;99.90
20985;DHT22;10651;47.552;7.606;2023-04-25T08:32:28;11.10;99.90
20985;DHT22;10651;47.552;7.606;2023-04-25T08:34:54;11.00;99.90
20985;DHT22;10651;47.552;7.606;2023-04-25T08:37:21;10.90;99.90
20985;DHT22;10651;47.552;7.606;2023-04-25T08:39:46;11.00;99.90
20985;DHT22;10651;47.552;7.606;2023-04-25T08:42:15;11.00;99.90
20985;DHT22;10651;47.552;7.606;2023-04-25T08:44:40;11.10;99.90
20985;DHT22;10651;47.552;7.606;2023-04-25T08:47:06;11.10;99.90
20985;DHT22;10651;47.552;7.606;2023-04-25T08:49:33;11.00;99.90
20985;DHT22;10651;47.552;7.606;2023-04-25T08:52:03;11.00;99.90
20985;DHT22;10651;47.552;7.606;2023-04-25T08:54:32;11.00;99.90
20985;DHT22;10651;47.552;7.606;2023-04-25T08:57:01;11.00;99.90
20985;DHT22;10651;47.552;7.606;2023-04-25T09:01:57;11.40;99.90
20985;DHT22;10651;47.552;7.606;2023-04-25T09:04:23;11.60;99.90
20985;DHT22;10651;47.552;7.606;2023-04-25T09:06:48;11.60;99.90
20985;DHT22;10651;47.552;7.606;2023-04-25T09:09:14;11.70;99.90
20985;DHT22;10651;47.552;7.606;2023-04-25T09:11:41;11.70;99.90
20985;DHT22;10651;47.552;7.606;2023-04-25T09:14:25;11.90;99.90
20985;DHT22;10651;47.552;7.606;2023-04-25T09:19:34;12.50;99.90
20985;DHT22;10651;47.552;7.606;2023-04-25T09:22:03;13.00;99.90
20985;DHT22;10651;47.552;7.606;2023-04-25T09:27:06;13.30;99.90
20985;DHT22;10651;47.552;7.606;2023-04-25T09:29:34;13.50;99.90
20985;DHT22;10651;47.552;7.606;2023-04-25T09:32:13;13.70;99.90
20985;DHT22;10651;47.552;7.606;2023-04-25T09:34:46;13.60;99.90
20985;DHT22;10651;47.552;7.606;2023-04-25T09:37:29;13.70;99.90
20985;DHT22;10651;47.552;7.606;2023-04-25T09:39:56;13.70;99.90
20985;DHT22;10651;47.552;7.606;2023-04-25T09:42:24;13.80;99.90
20985;DHT22;10651;47.552;7.606;2023-04-25T09:44:53;13.80;99.90
20985;DHT22;10651;47.552;7.606;2023-04-25T09:47:19;14.00;99.90
20985;DHT22;10651;47.552;7.606;2023-04-25T09:49:47;13.80;99.90
20985;DHT22;10651;47.552;7.606;2023-04-25T09:52:18;13.50;99.90
20985;DHT22;10651;47.552;7.606;2023-04-25T09:54:45;13.30;99.90
20985;DHT22;10651;47.552;7.606;2023-04-25T09:57:20;13.50;99.90
20985;DHT22;10651;47.552;7.606;2023-04-25T09:59:50;14.00;99.90
20985;DHT22;10651;47.552;7.606;2023-04-25T10:02:24;14.30;99.90
20985;DHT22;10651;47.552;7.606;2023-04-25T10:04:52;14.30;99.90
20985;DHT22;10651;47.552;7.606;2023-04-25T10:07:24;14.40;99.90
20985;DHT22;10651;47.552;7.606;2023-04-25T10:09:57;14.50;99.90
20985;DHT22;10651;47.552;7.606;2023-04-25T10:12:26;14.80;99.90
20985;DHT22;10651;47.552;7.606;2023-04-25T10:14:52;15.00;99.90
20985;DHT22;10651;47.552;7.606;2023-04-25T10:17:19;15.20;99.90
20985;DHT22;10651;47.552;7.606;2023-04-25T10:19:47;15.00;99.90
20985;DHT22;10651;47.552;7.606;2023-04-25T10:22:26;14.80;99.90
20985;DHT22;10651;47.552;7.606;2023-04-25T10:24:55;14.50;99.90
20985;DHT22;10651;47.552;7.606;2023-04-25T10:27:21;14.50;99.90
20985;DHT22;10651;47.552;7.606;2023-04-25T10:30:03;15.10;99.90
20985;DHT22;10651;47.552;7.606;2023-04-25T10:32:33;15.80;99.90
20985;DHT22;10651;47.552;7.606;2023-04-25T10:38:09;16.00;99.90
20985;DHT22;10651;47.552;7.606;2023-04-25T10:40:36;15.50;99.90
20985;DHT22;10651;47.552;7.606;2023-04-25T10:45:59;15.40;99.90
20985;DHT22;10651;47.552;7.606;2023-04-25T10:48:30;15.50;99.90
20985;DHT22;10651;47.552;7.606;2023-04-25T10:51:09;15.80;99.90
20985;DHT22;10651;47.552;7.606;2023-04-25T10:53:35;16.30;99.90
20985;DHT22;10651;47.552;7.606;2023-04-25T10:56:19;16.70;99.90
20985;DHT22;10651;47.552;7.606;2023-04-25T10:58:45;17.10;99.90
20985;DHT22;10651;47.552;7.606;2023-04-25T11:01:13;17.10;99.90
20985;DHT22;10651;47.552;7.606;2023-04-25T11:03:43;17.10;99.90
20985;DHT22;10651;47.552;7.606;2023-04-25T11:06:55;17.00;99.90
20985;DHT22;10651;47.552;7.606;2023-04-25T11:09:15;16.90;99.90
20985;DHT22;10651;47.552;7.606;2023-04-25T11:11:41;16.40;99.90
20985;DHT22;10651;47.552;7.606;2023-04-25T11:14:07;16.30;99.90
20985;DHT22;10651;47.552;7.606;2023-04-25T11:16:33;16.70;99.90
20985;DHT22;10651;47.552;7.606;2023-04-25T11:18:58;17.00;99.90
20985;DHT22;10651;47.552;7.606;2023-04-25T11:21:27;17.40;99.90
20985;DHT22;10651;47.552;7.606;2023-04-25T11:23:54;17.80;99.90
20985;DHT22;10651;47.552;7.606;2023-04-25T11:26:22;18.10;99.90
20985;DHT22;10651;47.552;7.606;2023-04-25T11:28:49;18.20;99.90
20985;DHT22;10651;47.552;7.606;2023-04-25T11:31:15;18.00;99.90
20985;DHT22;10651;47.552;7.606;2023-04-25T11:33:40;17.70;99.90
20985;DHT22;10651;47.552;7.606;2023-04-25T11:36:07;18.00;99.90
20985;DHT22;10651;47.552;7.606;2023-04-25T11:38:34;17.70;99.90
20985;DHT22;10651;47.552;7.606;2023-04-25T11:41:00;17.40;99.90
20985;DHT22;10651;47.552;7.606;2023-04-25T11:43:26;17.30;99.90
20985;DHT22;10651;47.552;7.606;2023-04-25T11:45:52;17.50;99.90
20985;DHT22;10651;47.552;7.606;2023-04-25T11:48:18;17.50;99.90
20985;DHT22;10651;47.552;7.606;2023-04-25T11:50:44;17.50;99.90
20985;DHT22;10651;47.552;7.606;2023-04-25T11:53:10;17.80;99.90
20985;DHT22;10651;47.552;7.606;2023-04-25T11:55:36;18.30;99.90
20985;DHT22;10651;47.552;7.606;2023-04-25T11:58:03;18.50;99.90
20985;DHT22;10651;47.552;7.606;2023-04-25T12:00:30;18.50;99.90
20985;DHT22;10651;47.552;7.606;2023-04-25T12:02:57;18.20;99.90
20985;DHT22;10651;47.552;7.606;2023-04-25T12:05:29;18.40;99.90
20985;DHT22;10651;47.552;7.606;2023-04-25T12:07:56;17.90;99.90
20985;DHT22;10651;47.552;7.606;2023-04-25T12:10:21;17.60;99.90
20985;DHT22;10651;47.552;7.606;2023-04-25T12:12:49;17.50;99.90
20985;DHT22;10651;47.552;7.606;2023-04-25T12:15:24;17.50;99.90
20985;DHT22;10651;47.552;7.606;2023-04-25T12:17:51;16.90;99.90
20985;DHT22;10651;47.552;7.606;2023-04-25T12:20:19;16.60;99.90
20985;DHT22;10651;47.552;7.606;2023-04-25T12:22:46;15.90;99.90
20985;DHT22;10651;47.552;7.606;2023-04-25T12:25:13;15.30;99.90
20985;DHT22;10651;47.552;7.606;2023-04-25T12:27:39;15.00;99.90
20985;DHT22;10651;47.552;7.606;2023-04-25T12:30:08;14.60;99.90
20985;DHT22;10651;47.552;7.606;2023-04-25T12:32:33;14.30;99.90
20985;DHT22;10651;47.552;7.606;2023-04-25T12:34:59;13.90;99.90
20985;DHT22;10651;47.552;7.606;2023-04-25T12:37:25;13.80;99.90
20985;DHT22;10651;47.552;7.606;2023-04-25T12:39:51;14.40;99.90
20985;DHT22;10651;47.552;7.606;2023-04-25T12:42:17;15.80;99.90
20985;DHT22;10651;47.552;7.606;2023-04-25T12:44:42;16.70;99.90
20985;DHT22;10651;47.552;7.606;2023-04-25T12:47:08;17.10;99.90
20985;DHT22;10651;47.552;7.606;2023-04-25T12:49:34;17.20;99.90
20985;DHT22;10651;47.552;7.606;2023-04-25T12:52:00;17.20;99.90
20985;DHT22;10651;47.552;7.606;2023-04-25T12:54:25;17.50;99.90
20985;DHT22;10651;47.552;7.606;2023-04-25T12:56:51;17.70;99.90
20985;DHT22;10651;47.552;7.606;2023-04-25T12:59:18;18.50;99.90
20985;DHT22;10651;47.552;7.606;2023-04-25T13:01:43;18.50;99.90
20985;DHT22;10651;47.552;7.606;2023-04-25T13:04:10;18.50;99.90
20985;DHT22;10651;47.552;7.606;2023-04-25T13:06:36;18.40;99.90
20985;DHT22;10651;47.552;7.606;2023-04-25T13:09:02;17.70;99.90
20985;DHT22;10651;47.552;7.606;2023-04-25T13:11:28;17.40;99.90
20985;DHT22;10651;47.552;7.606;2023-04-25T13:13:55;17.10;99.90
20985;DHT22;10651;47.552;7.606;2023-04-25T13:16:21;17.50;99.90
20985;DHT22;10651;47.552;7.606;2023-04-25T13:18:46;17.70;99.90
20985;DHT22;10651;47.552;7.606;2023-04-25T13:21:12;18.10;99.90
20985;DHT22;10651;47.552;7.606;2023-04-25T13:23:38;18.60;99.90
20985;DHT22;10651;47.552;7.606;2023-04-25T13:26:04;18.70;99.90
20985;DHT22;10651;47.552;7.606;2023-04-25T13:28:30;18.40;99.90
20985;DHT22;10651;47.552;7.606;2023-04-25T13:30:55;18.70;99.90
20985;DHT22;10651;47.552;7.606;2023-04-25T13:33:21;18.80;99.90
20985;DHT22;10651;47.552;7.606;2023-04-25T13:35:48;18.80;99.90
20985;DHT22;10651;47.552;7.606;2023-04-25T13:38:25;18.80;99.90
20985;DHT22;10651;47.552;7.606;2023-04-25T13:40:51;19.10;99.90
20985;DHT22;10651;47.552;7.606;2023-04-25T13:43:21;18.70;99.90
20985;DHT22;10651;47.552;7.606;2023-04-25T13:45:50;18.90;99.90
20985;DHT22;10651;47.552;7.606;2023-04-25T13:48:16;19.30;99.90
20985;DHT22;10651;47.552;7.606;2023-04-25T13:50:42;18.40;99.90
20985;DHT22;10651;47.552;7.606;2023-04-25T13:53:07;18.20;99.90
20985;DHT22;10651;47.552;7.606;2023-04-25T13:55:34;17.90;99.90
20985;DHT22;10651;47.552;7.606;2023-04-25T13:58:02;17.30;99.90
20985;DHT22;10651;47.552;7.606;2023-04-25T14:00:34;16.90;99.90
20985;DHT22;10651;47.552;7.606;2023-04-25T14:03:00;16.40;99.90
20985;DHT22;10651;47.552;7.606;2023-04-25T14:05:30;16.20;99.90
20985;DHT22;10651;47.552;7.606;2023-04-25T14:07:55;15.70;99.90
20985;DHT22;10651;47.552;7.606;2023-04-25T14:10:21;15.70;99.90
20985;DHT22;10651;47.552;7.606;2023-04-25T14:12:47;15.70;99.90
20985;DHT22;10651;47.552;7.606;2023-04-25T14:15:12;16.00;99.90
20985;DHT22;10651;47.552;7.606;2023-04-25T14:17:38;16.60;99.90
20985;DHT22;10651;47.552;7.606;2023-04-25T14:20:04;16.90;99.90
20985;DHT22;10651;47.552;7.606;2023-04-25T14:22:31;17.40;99.90
20985;DHT22;10651;47.552;7.606;2023-04-25T14:24:57;17.70;99.90
20985;DHT22;10651;47.552;7.606;2023-04-25T14:27:23;17.70;99.90
20985;DHT22;10651;47.552;7.606;2023-04-25T14:29:49;17.60;99.90
20985;DHT22;10651;47.552;7.606;2023-04-25T14:32:14;17.30;99.90
20985;DHT22;10651;47.552;7.606;2023-04-25T14:34:40;17.00;99.90
20985;DHT22;10651;47.552;7.606;2023-04-25T14:37:06;16.80;99.90
20985;DHT22;10651;47.552;7.606;2023-04-25T14:39:32;16.80;99.90
20985;DHT22;10651;47.552;7.606;2023-04-25T14:41:57;17.00;99.90
20985;DHT22;10651;47.552;7.606;2023-04-25T14:44:23;17.10;99.90
20985;DHT22;10651;47.552;7.606;2023-04-25T14:46:49;17.10;99.90
20985;DHT22;10651;47.552;7.606;2023-04-25T14:49:17;16.80;99.90
20985;DHT22;10651;47.552;7.606;2023-04-25T14:51:42;16.40;99.90
20985;DHT22;10651;47.552;7.606;2023-04-25T14:54:08;16.10;99.90
20985;DHT22;10651;47.552;7.606;2023-04-25T14:56:33;15.90;99.90
20985;DHT22;10651;47.552;7.606;2023-04-25T14:58:59;15.90;99.90
20985;DHT22;10651;47.552;7.606;2023-04-25T15:01:25;15.50;99.90
20985;DHT22;10651;47.552;7.606;2023-04-25T15:03:53;15.10;99.90
20985;DHT22;10651;47.552;7.606;2023-04-25T15:06:19;14.70;99.90
20985;DHT22;10651;47.552;7.606;2023-04-25T15:08:45;14.40;99.90
20985;DHT22;10651;47.552;7.606;2023-04-25T15:11:10;14.00;99.90
20985;DHT22;10651;47.552;7.606;2023-04-25T15:13:36;13.80;99.90
20985;DHT22;10651;47.552;7.606;2023-04-25T15:16:02;13.60;99.90
20985;DHT22;10651;47.552;7.606;2023-04-25T15:18:28;13.50;99.90
20985;DHT22;10651;47.552;7.606;2023-04-25T15:20:53;13.60;99.90
20985;DHT22;10651;47.552;7.606;2023-04-25T15:23:20;13.40;99.90
20985;DHT22;10651;47.552;7.606;2023-04-25T15:25:46;13.60;99.90
20985;DHT22;10651;47.552;7.606;2023-04-25T15:28:12;13.70;99.90
20985;DHT22;10651;47.552;7.606;2023-04-25T15:30:42;13.60;99.90
20985;DHT22;10651;47.552;7.606;2023-04-25T15:33:08;13.70;99.90
20985;DHT22;10651;47.552;7.606;2023-04-25T15:35:34;13.70;99.90
20985;DHT22;10651;47.552;7.606;2023-04-25T15:38:00;13.70;99.90
20985;DHT22;10651;47.552;7.606;2023-04-25T15:40:26;13.80;99.90
20985;DHT22;10651;47.552;7.606;2023-04-25T15:42:52;13.90;99.90
20985;DHT22;10651;47.552;7.606;2023-04-25T15:45:23;14.00;99.90
20985;DHT22;10651;47.552;7.606;2023-04-25T15:47:55;14.00;99.90
20985;DHT22;10651;47.552;7.606;2023-04-25T15:50:21;13.80;99.90
20985;DHT22;10651;47.552;7.606;2023-04-25T15:52:48;13.90;99.90
20985;DHT22;10651;47.552;7.606;2023-04-25T15:55:14;13.90;99.90
20985;DHT22;10651;47.552;7.606;2023-04-25T15:57:42;14.00;99.90
20985;DHT22;10651;47.552;7.606;2023-04-25T16:00:08;14.10;99.90
20985;DHT22;10651;47.552;7.606;2023-04-25T16:02:37;14.10;99.90
20985;DHT22;10651;47.552;7.606;2023-04-25T16:05:03;14.00;99.90
20985;DHT22;10651;47.552;7.606;2023-04-25T16:07:29;13.90;99.90
20985;DHT22;10651;47.552;7.606;2023-04-25T16:09:54;13.80;99.90
20985;DHT22;10651;47.552;7.606;2023-04-25T16:12:20;13.70;99.90
20985;DHT22;10651;47.552;7.606;2023-04-25T16:14:46;13.60;99.90
20985;DHT22;10651;47.552;7.606;2023-04-25T16:17:11;13.40;99.90
20985;DHT22;10651;47.552;7.606;2023-04-25T16:19:37;13.40;99.90
20985;DHT22;10651;47.552;7.606;2023-04-25T16:22:03;13.40;99.90
20985;DHT22;10651;47.552;7.606;2023-04-25T16:24:29;13.50;99.90
20985;DHT22;10651;47.552;7.606;2023-04-25T16:26:54;13.50;99.90
20985;DHT22;10651;47.552;7.606;2023-04-25T16:29:20;13.50;99.90
20985;DHT22;10651;47.552;7.606;2023-04-25T16:31:46;13.60;99.90
20985;DHT22;10651;47.552;7.606;2023-04-25T16:34:12;13.90;99.90
20985;DHT22;10651;47.552;7.606;2023-04-25T16:36:38;14.00;99.90
20985;DHT22;10651;47.552;7.606;2023-04-25T16:39:04;14.20;99.90
20985;DHT22;10651;47.552;7.606;2023-04-25T16:41:32;14.20;99.90
20985;DHT22;10651;47.552;7.606;2023-04-25T16:43:58;14.20;99.90
20985;DHT22;10651;47.552;7.606;2023-04-25T16:46:24;14.20;99.90
20985;DHT22;10651;47.552;7.606;2023-04-25T16:48:50;14.30;99.90
20985;DHT22;10651;47.552;7.606;2023-04-25T16:51:16;14.20;99.90
20985;DHT22;10651;47.552;7.606;2023-04-25T16:53:42;14.00;99.90
20985;DHT22;10651;47.552;7.606;2023-04-25T16:56:08;13.90;99.90
20985;DHT22;10651;47.552;7.606;2023-04-25T16:58:34;13.80;99.90
20985;DHT22;10651;47.552;7.606;2023-04-25T17:01:00;13.90;99.90
20985;DHT22;10651;47.552;7.606;2023-04-25T17:03:26;13.90;99.90
20985;DHT22;10651;47.552;7.606;2023-04-25T17:05:53;13.80;99.90
20985;DHT22;10651;47.552;7.606;2023-04-25T17:08:25;13.90;99.90
20985;DHT22;10651;47.552;7.606;2023-04-25T17:10:50;13.80;99.90
20985;DHT22;10651;47.552;7.606;2023-04-25T17:13:16;13.90;99.90
20985;DHT22;10651;47.552;7.606;2023-04-25T17:15:42;13.90;99.90
20985;DHT22;10651;47.552;7.606;2023-04-25T17:18:07;13.90;99.90
20985;DHT22;10651;47.552;7.606;2023-04-25T17:20:33;13.90;99.90
20985;DHT22;10651;47.552;7.606;2023-04-25T17:22:59;14.00;99.90
20985;DHT22;10651;47.552;7.606;2023-04-25T17:25:25;13.90;99.90
20985;DHT22;10651;47.552;7.606;2023-04-25T17:27:51;14.00;99.90
20985;DHT22;10651;47.552;7.606;2023-04-25T17:30:17;13.90;99.90
20985;DHT22;10651;47.552;7.606;2023-04-25T17:32:43;13.70;99.90
20985;DHT22;10651;47.552;7.606;2023-04-25T17:35:09;13.60;99.90
20985;DHT22;10651;47.552;7.606;2023-04-25T17:37:35;13.50;99.90
20985;DHT22;10651;47.552;7.606;2023-04-25T17:40:01;13.50;99.90
20985;DHT22;10651;47.552;7.606;2023-04-25T17:42:26;13.50;99.90
20985;DHT22;10651;47.552;7.606;2023-04-25T17:44:52;13.20;99.90
20985;DHT22;10651;47.552;7.606;2023-04-25T17:47:20;12.90;99.90
20985;DHT22;10651;47.552;7.606;2023-04-25T17:49:45;12.80;99.90
20985;DHT22;10651;47.552;7.606;2023-04-25T17:52:11;12.70;99.90
20985;DHT22;10651;47.552;7.606;2023-04-25T17:54:37;12.60;99.90
20985;DHT22;10651;47.552;7.606;2023-04-25T17:57:03;12.50;99.90
20985;DHT22;10651;47.552;7.606;2023-04-25T17:59:29;12.50;99.90
20985;DHT22;10651;47.552;7.606;2023-04-25T18:04:23;12.30;99.90
20985;DHT22;10651;47.552;7.606;2023-04-25T18:06:49;12.30;99.90
20985;DHT22;10651;47.552;7.606;2023-04-25T18:09:14;12.30;99.90
20985;DHT22;10651;47.552;7.606;2023-04-25T18:11:42;12.30;99.90
20985;DHT22;10651;47.552;7.606;2023-04-25T18:14:08;12.30;99.90
20985;DHT22;10651;47.552;7.606;2023-04-25T18:16:40;12.20;99.90
20985;DHT22;10651;47.552;7.606;2023-04-25T18:19:06;12.20;99.90
20985;DHT22;10651;47.552;7.606;2023-04-25T18:21:37;12.00;99.90
20985;DHT22;10651;47.552;7.606;2023-04-25T18:24:04;12.00;99.90
20985;DHT22;10651;47.552;7.606;2023-04-25T18:26:30;11.80;99.90
20985;DHT22;10651;47.552;7.606;2023-04-25T18:28:56;11.80;99.90
20985;DHT22;10651;47.552;7.606;2023-04-25T18:31:21;11.80;99.90
20985;DHT22;10651;47.552;7.606;2023-04-25T18:33:49;11.70;99.90
20985;DHT22;10651;47.552;7.606;2023-04-25T18:36:15;11.60;99.90
20985;DHT22;10651;47.552;7.606;2023-04-25T18:38:41;11.50;99.90
20985;DHT22;10651;47.552;7.606;2023-04-25T18:41:06;11.50;99.90
20985;DHT22;10651;47.552;7.606;2023-04-25T18:43:32;11.50;99.90
20985;DHT22;10651;47.552;7.606;2023-04-25T18:45:58;11.60;99.90
20985;DHT22;10651;47.552;7.606;2023-04-25T18:48:27;11.70;99.90
20985;DHT22;10651;47.552;7.606;2023-04-25T18:50:55;11.50;99.90
20985;DHT22;10651;47.552;7.606;2023-04-25T18:53:29;11.50;99.90
20985;DHT22;10651;47.552;7.606;2023-04-25T18:55:54;11.50;99.90
20985;DHT22;10651;47.552;7.606;2023-04-25T18:58:20;11.40;99.90
20985;DHT22;10651;47.552;7.606;2023-04-25T19:00:47;11.40;99.90
20985;DHT22;10651;47.552;7.606;2023-04-25T19:03:13;11.40;99.90
20985;DHT22;10651;47.552;7.606;2023-04-25T19:05:39;11.40;99.90
20985;DHT22;10651;47.552;7.606;2023-04-25T19:08:05;11.30;99.90
20985;DHT22;10651;47.552;7.606;2023-04-25T19:10:31;11.30;99.90
20985;DHT22;10651;47.552;7.606;2023-04-25T19:12:56;11.30;99.90
20985;DHT22;10651;47.552;7.606;2023-04-25T19:15:22;11.30;99.90
20985;DHT22;10651;47.552;7.606;2023-04-25T19:17:48;11.30;99.90
20985;DHT22;10651;47.552;7.606;2023-04-25T19:20:13;11.20;99.90
20985;DHT22;10651;47.552;7.606;2023-04-25T19:22:40;11.20;99.90
20985;DHT22;10651;47.552;7.606;2023-04-25T19:25:06;11.20;99.90
20985;DHT22;10651;47.552;7.606;2023-04-25T19:27:34;11.20;99.90
20985;DHT22;10651;47.552;7.606;2023-04-25T19:30:03;11.10;99.90
20985;DHT22;10651;47.552;7.606;2023-04-25T19:32:38;11.10;99.90
20985;DHT22;10651;47.552;7.606;2023-04-25T19:35:05;11.10;99.90
20985;DHT22;10651;47.552;7.606;2023-04-25T19:37:37;11.20;99.90
20985;DHT22;10651;47.552;7.606;2023-04-25T19:43:10;11.20;99.90
20985;DHT22;10651;47.552;7.606;2023-04-25T19:45:46;11.20;99.90
20985;DHT22;10651;47.552;7.606;2023-04-25T19:48:12;11.20;99.90
20985;DHT22;10651;47.552;7.606;2023-04-25T19:50:44;11.20;99.90
20985;DHT22;10651;47.552;7.606;2023-04-25T19:53:12;11.10;99.90
20985;DHT22;10651;47.552;7.606;2023-04-25T19:55:47;11.10;99.90
20985;DHT22;10651;47.552;7.606;2023-04-25T19:58:26;11.10;99.90
20985;DHT22;10651;47.552;7.606;2023-04-25T20:00:59;11.00;99.90
20985;DHT22;10651;47.552;7.606;2023-04-25T20:03:25;11.00;99.90
20985;DHT22;10651;47.552;7.606;2023-04-25T20:05:53;10.90;99.90
20985;DHT22;10651;47.552;7.606;2023-04-25T20:08:34;11.00;99.90
20985;DHT22;10651;47.552;7.606;2023-04-25T20:11:03;10.90;99.90
20985;DHT22;10651;47.552;7.606;2023-04-25T20:13:28;10.90;99.90
20985;DHT22;10651;47.552;7.606;2023-04-25T20:15:54;10.90;99.90
20985;DHT22;10651;47.552;7.606;2023-04-25T20:18:23;10.90;99.90
20985;DHT22;10651;47.552;7.606;2023-04-25T20:20:50;10.90;99.90
20985;DHT22;10651;47.552;7.606;2023-04-25T20:23:16;10.90;99.90
20985;DHT22;10651;47.552;7.606;2023-04-25T20:25:42;11.00;99.90
20985;DHT22;10651;47.552;7.606;2023-04-25T20:28:08;11.00;99.90
20985;DHT22;10651;47.552;7.606;2023-04-25T20:30:33;11.00;99.90
20985;DHT22;10651;47.552;7.606;2023-04-25T20:33:00;11.00;99.90
20985;DHT22;10651;47.552;7.606;2023-04-25T20:35:26;11.00;99.90
20985;DHT22;10651;47.552;7.606;2023-04-25T20:37:57;11.00;99.90
20985;DHT22;10651;47.552;7.606;2023-04-25T20:40:29;11.00;99.90
20985;DHT22;10651;47.552;7.606;2023-04-25T20:43:07;10.90;99.90
20985;DHT22;10651;47.552;7.606;2023-04-25T20:45:58;10.90;99.90
20985;DHT22;10651;47.552;7.606;2023-04-25T20:48:27;10.80;99.90
20985;DHT22;10651;47.552;7.606;2023-04-25T20:50:52;10.80;99.90
20985;DHT22;10651;47.552;7.606;2023-04-25T20:56:25;10.70;99.90
20985;DHT22;10651;47.552;7.606;2023-04-25T20:58:54;10.60;99.90
20985;DHT22;10651;47.552;7.606;2023-04-25T21:01:39;10.60;99.90
20985;DHT22;10651;47.552;7.606;2023-04-25T21:04:13;10.60;99.90
20985;DHT22;10651;47.552;7.606;2023-04-25T21:06:45;10.50;99.90
20985;DHT22;10651;47.552;7.606;2023-04-25T21:09:11;10.50;99.90
20985;DHT22;10651;47.552;7.606;2023-04-25T21:11:43;10.40;99.90
20985;DHT22;10651;47.552;7.606;2023-04-25T21:14:13;10.50;99.90
20985;DHT22;10651;47.552;7.606;2023-04-25T21:16:39;10.40;99.90
20985;DHT22;10651;47.552;7.606;2023-04-25T21:19:09;10.40;99.90
20985;DHT22;10651;47.552;7.606;2023-04-25T21:21:42;10.30;99.90
20985;DHT22;10651;47.552;7.606;2023-04-25T21:24:16;10.30;99.90
20985;DHT22;10651;47.552;7.606;2023-04-25T21:26:44;10.30;99.90
20985;DHT22;10651;47.552;7.606;2023-04-25T21:29:13;10.30;99.90
20985;DHT22;10651;47.552;7.606;2023-04-25T21:31:46;10.20;99.90
20985;DHT22;10651;47.552;7.606;2023-04-25T21:34:15;10.20;99.90
20985;DHT22;10651;47.552;7.606;2023-04-25T21:36:44;10.20;99.90
20985;DHT22;10651;47.552;7.606;2023-04-25T21:39:10;10.30;99.90
20985;DHT22;10651;47.552;7.606;2023-04-25T21:44:12;10.20;99.90
20985;DHT22;10651;47.552;7.606;2023-04-25T21:46:40;10.20;99.90
20985;DHT22;10651;47.552;7.606;2023-04-25T21:49:08;10.20;99.90
20985;DHT22;10651;47.552;7.606;2023-04-25T21:51:34;10.20;99.90
20985;DHT22;10651;47.552;7.606;2023-04-25T21:54:00;10.10;99.90
20985;DHT22;10651;47.552;7.606;2023-04-25T21:56:31;10.10;99.90
20985;DHT22;10651;47.552;7.606;2023-04-25T21:58:59;10.10;99.90
20985;DHT22;10651;47.552;7.606;2023-04-25T22:01:36;10.00;99.90
20985;DHT22;10651;47.552;7.606;2023-04-25T22:04:05;10.00;99.90
20985;DHT22;10651;47.552;7.606;2023-04-25T22:06:35;10.10;99.90
20985;DHT22;10651;47.552;7.606;2023-04-25T22:09:04;10.00;99.90
20985;DHT22;10651;47.552;7.606;2023-04-25T22:11:29;10.00;99.90
20985;DHT22;10651;47.552;7.606;2023-04-25T22:14:10;10.00;99.90